createdAt,value
2022-07-30T00:01:36.365Z,100717.44
2022-07-30T00:04:05.543Z,100714.94
2022-07-30T00:06:34.488Z,100718.75
2022-07-30T00:09:04.741Z,100714.97
2022-07-30T00:11:33.357Z,100710.31
2022-07-30T00:14:02.762Z,100706.84
2022-07-30T00:16:31.394Z,100710.25
2022-07-30T00:19:00.050Z,100706.94
2022-07-30T00:21:38.521Z,100699.91
2022-07-30T00:24:09.584Z,100694.97
2022-07-30T00:26:38.873Z,100684.66
2022-07-30T00:29:07.977Z,100684.75
2022-07-30T00:31:36.652Z,100682.66
2022-07-30T00:34:05.718Z,100677.13
2022-07-30T00:36:34.984Z,100679.88
2022-07-30T00:39:06.225Z,100683.09
2022-07-30T00:41:53.399Z,100682.13
2022-07-30T00:44:22.267Z,100673.19
2022-07-30T00:46:51.298Z,100683.13
2022-07-30T00:49:20.758Z,100665.97
2022-07-30T00:51:50.833Z,100674.53
2022-07-30T00:54:21.191Z,100668.13
2022-07-30T00:56:51.764Z,100664.50
2022-07-30T00:59:20.622Z,100667.41
2022-07-30T01:01:49.289Z,100666.16
2022-07-30T01:04:17.931Z,100661.84
2022-07-30T01:06:46.731Z,100659.72
2022-07-30T01:09:15.359Z,100659.63
2022-07-30T01:11:44.436Z,100656.81
2022-07-30T01:14:15.028Z,100657.09
2022-07-30T01:16:45.003Z,100643.06
2022-07-30T01:19:41.270Z,100637.06
2022-07-30T01:22:18.788Z,100635.31
2022-07-30T01:25:02.635Z,100644.44
2022-07-30T01:27:36.744Z,100651.03
2022-07-30T01:30:09.009Z,100647.75
2022-07-30T01:32:42.938Z,100646.84
2022-07-30T01:35:14.170Z,100662.91
2022-07-30T01:37:46.237Z,100655.06
2022-07-30T01:40:15.891Z,100656.16
2022-07-30T01:42:49.691Z,100637.44
2022-07-30T01:45:20.212Z,100630.34
2022-07-30T01:47:51.225Z,100627.28
2022-07-30T01:50:23.322Z,100627.56
2022-07-30T01:52:55.795Z,100620.72
2022-07-30T01:55:31.244Z,100618.19
2022-07-30T01:58:02.950Z,100609.66
2022-07-30T02:00:40.464Z,100605.13
2022-07-30T02:03:09.600Z,100617.25
2022-07-30T02:05:41.874Z,100603.34
2022-07-30T02:08:17.966Z,100612.72
2022-07-30T02:10:58.836Z,100606.47
2022-07-30T02:13:30.520Z,100607.72
2022-07-30T02:16:07.496Z,100612.34
2022-07-30T02:18:47.403Z,100602.38
2022-07-30T02:21:21.519Z,100599.63
2022-07-30T02:23:53.124Z,100601.19
2022-07-30T02:26:27.376Z,100596.25
2022-07-30T02:29:07.310Z,100591.22
2022-07-30T02:31:41.439Z,100583.66
2022-07-30T02:34:14.221Z,100573.00
2022-07-30T02:36:45.761Z,100570.72
2022-07-30T02:39:17.061Z,100564.00
2022-07-30T02:41:49.885Z,100563.22
2022-07-30T02:44:22.127Z,100551.56
2022-07-30T02:46:53.594Z,100555.38
2022-07-30T02:49:50.533Z,100550.06
2022-07-30T02:52:20.105Z,100544.78
2022-07-30T02:54:52.715Z,100546.72
2022-07-30T02:57:23.870Z,100544.41
2022-07-30T02:59:55.253Z,100531.97
2022-07-30T03:02:29.309Z,100535.78
2022-07-30T03:05:01.100Z,100548.09
2022-07-30T03:07:31.565Z,100545.09
2022-07-30T03:10:02.164Z,100540.97
2022-07-30T03:12:34.465Z,100549.50
2022-07-30T03:15:05.132Z,100544.97
2022-07-30T03:17:41.398Z,100544.13
2022-07-30T03:20:14.414Z,100550.03
2022-07-30T03:22:48.129Z,100534.63
2022-07-30T03:25:22.455Z,100543.28
2022-07-30T03:27:55.402Z,100531.03
2022-07-30T03:30:27.027Z,100533.72
2022-07-30T03:32:57.353Z,100527.97
2022-07-30T03:35:27.377Z,100530.28
2022-07-30T03:38:01.939Z,100523.44
2022-07-30T03:40:32.991Z,100529.44
2022-07-30T03:43:02.435Z,100535.19
2022-07-30T03:45:33.699Z,100532.81
2022-07-30T03:48:10.038Z,100536.69
2022-07-30T03:50:43.362Z,100537.22
2022-07-30T03:53:13.113Z,100542.81
2022-07-30T03:56:03.097Z,100546.66
2022-07-30T03:59:04.511Z,100547.69
2022-07-30T04:01:36.146Z,100553.72
2022-07-30T04:04:12.805Z,100556.03
2022-07-30T04:06:43.213Z,100563.75
2022-07-30T04:09:14.062Z,100567.22
2022-07-30T04:11:44.889Z,100567.75
2022-07-30T04:14:17.906Z,100568.44
2022-07-30T04:16:58.278Z,100563.75
2022-07-30T04:19:37.630Z,100553.78
2022-07-30T04:22:09.884Z,100563.34
2022-07-30T04:24:42.269Z,100557.22
2022-07-30T04:27:12.188Z,100558.06
2022-07-30T04:29:42.531Z,100547.56
2022-07-30T04:32:13.764Z,100541.81
2022-07-30T04:34:57.376Z,100541.59
2022-07-30T04:37:44.292Z,100550.75
2022-07-30T04:40:13.532Z,100548.25
2022-07-30T04:42:42.149Z,100547.94
2022-07-30T04:45:13.885Z,100540.59
2022-07-30T04:48:13.392Z,100537.00
2022-07-30T04:51:01.803Z,100549.72
2022-07-30T04:53:32.536Z,100544.75
2022-07-30T04:56:07.109Z,100545.53
2022-07-30T04:58:41.375Z,100545.53
2022-07-30T05:01:12.790Z,100540.25
2022-07-30T05:03:47.575Z,100534.44
2022-07-30T05:06:18.780Z,100534.25
2022-07-30T05:08:47.822Z,100536.63
2022-07-30T05:11:17.594Z,100541.84
2022-07-30T05:13:48.866Z,100552.78
2022-07-30T05:16:21.901Z,100548.34
2022-07-30T05:18:53.211Z,100556.06
2022-07-30T05:21:22.217Z,100549.94
2022-07-30T05:23:51.362Z,100550.91
2022-07-30T05:26:33.047Z,100542.94
2022-07-30T05:29:02.937Z,100530.91
2022-07-30T05:32:02.553Z,100519.13
2022-07-30T05:34:34.855Z,100518.41
2022-07-30T05:37:04.140Z,100523.03
2022-07-30T05:39:34.133Z,100518.97
2022-07-30T05:42:38.196Z,100525.13
2022-07-30T05:45:09.630Z,100522.13
2022-07-30T05:47:39.372Z,100520.69
2022-07-30T05:50:10.298Z,100519.66
2022-07-30T05:52:38.904Z,100528.81
2022-07-30T05:55:24.159Z,100523.75
2022-07-30T05:57:57.815Z,100523.81
2022-07-30T06:00:27.545Z,100524.69
2022-07-30T06:02:56.992Z,100523.00
2022-07-30T06:05:32.560Z,100520.56
2022-07-30T06:08:03.571Z,100526.97
2022-07-30T06:10:34.007Z,100533.59
2022-07-30T06:13:02.703Z,100531.75
2022-07-30T06:15:31.482Z,100531.31
2022-07-30T06:18:02.637Z,100525.59
2022-07-30T06:20:58.690Z,100536.91
2022-07-30T06:23:46.094Z,100524.97
2022-07-30T06:26:29.510Z,100519.50
2022-07-30T06:28:58.562Z,100520.56
2022-07-30T06:31:31.953Z,100514.59
2022-07-30T06:34:02.420Z,100511.84
2022-07-30T06:36:37.946Z,100499.38
2022-07-30T06:39:11.561Z,100500.66
2022-07-30T06:42:00.218Z,100507.16
2022-07-30T06:44:34.191Z,100495.78
2022-07-30T06:47:28.499Z,100496.56
2022-07-30T06:49:59.341Z,100494.09
2022-07-30T06:52:30.978Z,100482.19
2022-07-30T06:54:59.932Z,100482.03
2022-07-30T06:57:40.110Z,100478.66
2022-07-30T07:00:20.726Z,100489.28
2022-07-30T07:02:49.443Z,100486.00
2022-07-30T07:05:28.993Z,100491.81
2022-07-30T07:07:59.982Z,100483.81
2022-07-30T07:10:34.948Z,100485.31
2022-07-30T07:13:41.945Z,100478.00
2022-07-30T07:16:14.564Z,100475.22
2022-07-30T07:18:48.124Z,100471.69
2022-07-30T07:21:17.681Z,100476.56
2022-07-30T07:23:48.548Z,100476.66
2022-07-30T07:26:43.239Z,100476.69
2022-07-30T07:29:12.508Z,100479.03
2022-07-30T07:32:04.562Z,100477.28
2022-07-30T07:34:30.277Z,100489.34
2022-07-30T07:37:00.528Z,100485.44
2022-07-30T07:39:30.744Z,100477.28
2022-07-30T07:41:59.928Z,100477.84
2022-07-30T07:44:31.125Z,100476.41
2022-07-30T07:47:00.472Z,100477.00
2022-07-30T07:49:34.880Z,100472.72
2022-07-30T07:52:04.030Z,100472.50
2022-07-30T07:54:34.574Z,100476.25
2022-07-30T07:57:07.866Z,100462.03
2022-07-30T07:59:42.526Z,100459.97
2022-07-30T08:02:17.053Z,100466.94
2022-07-30T08:05:07.721Z,100424.34
2022-07-30T08:07:53.072Z,100463.84
2022-07-30T08:10:50.006Z,100465.69
2022-07-30T08:13:52.904Z,100450.50
2022-07-30T08:16:33.768Z,100451.50
2022-07-30T08:19:25.559Z,100442.09
2022-07-30T08:22:17.982Z,100441.28
2022-07-30T08:24:46.904Z,100437.91
2022-07-30T08:27:18.099Z,100441.78
2022-07-30T08:29:46.905Z,100444.00
2022-07-30T08:32:15.912Z,100448.53
2022-07-30T08:34:44.808Z,100442.28
2022-07-30T08:37:14.753Z,100441.25
2022-07-30T08:39:43.792Z,100438.31
2022-07-30T08:42:16.938Z,100429.00
2022-07-30T08:44:47.279Z,100429.44
2022-07-30T08:47:29.114Z,100438.47
2022-07-30T08:50:16.899Z,100430.91
2022-07-30T08:53:12.176Z,100438.28
2022-07-30T08:55:42.792Z,100426.34
2022-07-30T08:58:28.816Z,100426.06
2022-07-30T09:00:58.127Z,100438.97
2022-07-30T09:03:30.974Z,100443.06
2022-07-30T09:06:04.395Z,100439.78
2022-07-30T09:08:33.590Z,100438.38
2022-07-30T09:11:03.137Z,100442.66
2022-07-30T09:13:37.805Z,100445.50
2022-07-30T09:16:08.580Z,100440.91
2022-07-30T09:18:44.462Z,100430.63
2022-07-30T09:21:20.106Z,100423.19
2022-07-30T09:24:02.811Z,100428.50
2022-07-30T09:26:59.589Z,100430.84
2022-07-30T09:29:59.949Z,100434.28
2022-07-30T09:33:06.990Z,100436.28
2022-07-30T09:36:11.101Z,100434.72
2022-07-30T09:39:08.726Z,100419.97
2022-07-30T09:42:21.202Z,100434.53
2022-07-30T09:44:51.983Z,100430.28
2022-07-30T09:47:35.117Z,100428.84
2022-07-30T09:50:07.928Z,100432.63
2022-07-30T09:52:44.095Z,100428.13
2022-07-30T09:55:33.318Z,100431.72
2022-07-30T09:58:05.696Z,100429.09
2022-07-30T10:00:39.134Z,100418.69
2022-07-30T10:03:38.381Z,100426.84
2022-07-30T10:06:38.311Z,100427.31
2022-07-30T10:09:30.247Z,100440.22
2022-07-30T10:12:02.571Z,100438.09
2022-07-30T10:14:43.801Z,100437.81
2022-07-30T10:17:17.565Z,100435.13
2022-07-30T10:20:09.436Z,100439.25
2022-07-30T10:22:58.963Z,100448.16
2022-07-30T10:25:49.560Z,100442.00
2022-07-30T10:28:43.912Z,100446.78
2022-07-30T10:31:49.299Z,100443.00
2022-07-30T10:34:03.845Z,100443.31
2022-07-30T10:36:33.676Z,100446.47
2022-07-30T10:39:03.753Z,100443.66
2022-07-30T10:41:53.897Z,100447.03
2022-07-30T10:45:17.472Z,100443.69
2022-07-30T10:47:49.869Z,100446.69
2022-07-30T10:50:26.783Z,100448.69
2022-07-30T10:52:58.308Z,100442.84
2022-07-30T10:55:38.605Z,100440.19
2022-07-30T10:58:10.516Z,100441.38
2022-07-30T11:01:00.585Z,100441.69
2022-07-30T11:03:41.584Z,100433.31
2022-07-30T11:06:29.753Z,100434.19
2022-07-30T11:08:58.671Z,100446.03
2022-07-30T11:12:02.225Z,100433.31
2022-07-30T11:15:07.564Z,100444.00
2022-07-30T11:18:12.061Z,100435.50
2022-07-30T11:20:47.692Z,100430.00
2022-07-30T11:23:40.624Z,100435.00
2022-07-30T11:26:14.148Z,100425.97
2022-07-30T11:28:49.170Z,100421.47
2022-07-30T11:31:54.981Z,100416.41
2022-07-30T11:34:30.747Z,100416.41
2022-07-30T11:37:22.077Z,100414.75
2022-07-30T11:40:11.965Z,100410.56
2022-07-30T11:42:43.231Z,100409.88
2022-07-30T11:45:33.042Z,100418.84
2022-07-30T11:48:02.091Z,100412.97
2022-07-30T11:50:35.234Z,100408.88
2022-07-30T11:53:07.942Z,100408.28
2022-07-30T11:55:41.557Z,100400.56
2022-07-30T11:58:12.924Z,100404.31
2022-07-30T12:00:47.845Z,100401.50
2022-07-30T12:03:19.904Z,100396.31
2022-07-30T12:05:53.121Z,100397.69
2022-07-30T12:08:35.372Z,100404.44
2022-07-30T12:11:06.618Z,100394.41
2022-07-30T12:13:43.990Z,100388.13
2022-07-30T12:16:17.590Z,100388.00
2022-07-30T12:18:48.565Z,100385.22
2022-07-30T12:21:17.665Z,100368.03
2022-07-30T12:23:56.996Z,100371.50
2022-07-30T12:26:30.533Z,100368.75
2022-07-30T12:29:02.689Z,100358.53
2022-07-30T12:31:33.648Z,100355.78
2022-07-30T12:34:02.555Z,100356.81
2022-07-30T12:36:33.845Z,100370.75
2022-07-30T12:39:06.799Z,100354.03
2022-07-30T12:41:48.732Z,100349.84
2022-07-30T12:44:39.579Z,100345.47
2022-07-30T12:47:24.087Z,100351.84
2022-07-30T12:49:54.427Z,100354.47
2022-07-30T12:52:30.793Z,100351.00
2022-07-30T12:55:03.924Z,100368.19
2022-07-30T12:58:07.037Z,100373.00
2022-07-30T13:00:52.750Z,100374.78
2022-07-30T13:03:23.158Z,100365.94
2022-07-30T13:05:55.369Z,100373.81
2022-07-30T13:08:56.488Z,100365.41
2022-07-30T13:11:28.611Z,100369.75
2022-07-30T13:13:58.611Z,100365.53
2022-07-30T13:16:33.754Z,100366.72
2022-07-30T13:19:04.402Z,100365.16
2022-07-30T13:21:33.601Z,100368.03
2022-07-30T13:24:02.854Z,100368.78
2022-07-30T13:26:32.137Z,100364.38
2022-07-30T13:29:02.471Z,100370.56
2022-07-30T13:31:42.759Z,100365.72
2022-07-30T13:34:12.673Z,100356.47
2022-07-30T13:36:41.782Z,100341.59
2022-07-30T13:39:12.119Z,100339.88
2022-07-30T13:41:42.057Z,100332.41
2022-07-30T13:44:12.001Z,100323.06
2022-07-30T13:46:41.426Z,100315.09
2022-07-30T13:49:10.847Z,100311.56
2022-07-30T13:51:39.655Z,100305.63
2022-07-30T13:54:08.479Z,100307.94
2022-07-30T13:56:40.835Z,100308.19
2022-07-30T13:59:11.850Z,100304.03
2022-07-30T14:01:40.723Z,100293.72
2022-07-30T14:04:09.494Z,100295.97
2022-07-30T14:06:38.216Z,100284.31
2022-07-30T14:09:07.020Z,100271.72
2022-07-30T14:11:36.033Z,100262.84
2022-07-30T14:14:04.661Z,100265.41
2022-07-30T14:16:45.250Z,100259.47
2022-07-30T14:19:24.071Z,100265.50
2022-07-30T14:21:54.334Z,100262.66
2022-07-30T14:24:23.733Z,100267.97
2022-07-30T14:26:57.730Z,100265.72
2022-07-30T14:29:27.582Z,100265.13
2022-07-30T14:31:58.332Z,100266.31
2022-07-30T14:34:26.918Z,100258.69
2022-07-30T14:36:55.879Z,100257.59
2022-07-30T14:39:25.062Z,100246.66
2022-07-30T14:41:55.528Z,100240.41
2022-07-30T14:44:25.161Z,100244.22
2022-07-30T14:46:54.144Z,100248.66
2022-07-30T14:49:24.390Z,100253.75
2022-07-30T14:51:53.993Z,100242.41
2022-07-30T14:54:23.004Z,100238.09
2022-07-30T14:56:56.257Z,100241.13
2022-07-30T14:59:28.723Z,100239.78
2022-07-30T15:01:58.193Z,100238.97
2022-07-30T15:04:28.214Z,100231.03
2022-07-30T15:06:57.286Z,100235.19
2022-07-30T15:09:25.966Z,100229.66
2022-07-30T15:12:08.281Z,100226.28
2022-07-30T15:14:39.786Z,100225.47
2022-07-30T15:17:09.171Z,100219.75
2022-07-30T15:19:49.218Z,100217.44
2022-07-30T15:22:19.681Z,100208.97
2022-07-30T15:24:49.001Z,100212.50
2022-07-30T15:27:17.826Z,100199.53
2022-07-30T15:29:46.694Z,100203.44
2022-07-30T15:32:16.851Z,100200.34
2022-07-30T15:34:46.806Z,100190.13
2022-07-30T15:37:16.486Z,100189.66
2022-07-30T15:39:45.123Z,100196.84
2022-07-30T15:42:14.952Z,100204.38
2022-07-30T15:44:48.653Z,100189.06
2022-07-30T15:47:17.906Z,100190.66
2022-07-30T15:49:48.094Z,100181.59
2022-07-30T15:52:18.093Z,100180.06
2022-07-30T15:54:46.676Z,100178.84
2022-07-30T15:57:15.638Z,100178.91
2022-07-30T15:59:44.280Z,100173.91
2022-07-30T16:02:12.921Z,100187.41
2022-07-30T16:04:41.745Z,100175.06
2022-07-30T16:07:18.820Z,100180.72
2022-07-30T16:09:47.651Z,100173.41
2022-07-30T16:12:16.321Z,100178.06
2022-07-30T16:14:45.015Z,100177.72
2022-07-30T16:17:14.973Z,100171.56
2022-07-30T16:19:45.077Z,100162.16
2022-07-30T16:22:22.886Z,100169.03
2022-07-30T16:24:54.406Z,100169.53
2022-07-30T16:27:23.429Z,100165.06
2022-07-30T16:29:52.058Z,100167.06
2022-07-30T16:32:21.468Z,100167.91
2022-07-30T16:34:50.991Z,100160.50
2022-07-30T16:37:20.107Z,100168.22
2022-07-30T16:39:48.891Z,100160.06
2022-07-30T16:42:18.922Z,100165.69
2022-07-30T16:44:47.531Z,100152.03
2022-07-30T16:47:16.373Z,100145.19
2022-07-30T16:49:44.956Z,100143.25
2022-07-30T16:52:13.577Z,100147.41
2022-07-30T16:54:42.483Z,100146.06
2022-07-30T16:57:11.099Z,100150.13
2022-07-30T16:59:43.640Z,100162.34
2022-07-30T17:02:12.726Z,100168.22
2022-07-30T17:04:41.602Z,100169.31
2022-07-30T17:07:10.237Z,100169.06
2022-07-30T17:09:39.071Z,100179.91
2022-07-30T17:12:11.906Z,100182.41
2022-07-30T17:14:43.219Z,100184.66
2022-07-30T17:17:14.518Z,100179.66
2022-07-30T17:19:44.031Z,100170.91
2022-07-30T17:22:13.185Z,100172.22
2022-07-30T17:24:41.857Z,100170.00
2022-07-30T17:27:10.900Z,100164.69
2022-07-30T17:29:50.160Z,100174.69
2022-07-30T17:32:22.779Z,100157.69
2022-07-30T17:34:51.377Z,100164.31
2022-07-30T17:37:20.291Z,100163.50
2022-07-30T17:40:19.786Z,100157.59
2022-07-30T17:42:39.714Z,100157.94
2022-07-30T17:45:09.860Z,100151.16
2022-07-30T17:47:40.413Z,100144.97
2022-07-30T17:50:11.626Z,100149.38
2022-07-30T17:52:41.158Z,100141.78
2022-07-30T17:55:13.177Z,100141.06
2022-07-30T17:57:42.269Z,100140.66
2022-07-30T18:00:12.362Z,100143.53
2022-07-30T18:02:42.460Z,100141.91
2022-07-30T18:05:14.502Z,100130.91
2022-07-30T18:07:43.739Z,100132.91
2022-07-30T18:10:13.080Z,100124.47
2022-07-30T18:12:48.456Z,100118.75
2022-07-30T18:15:18.267Z,100113.13
2022-07-30T18:17:48.370Z,100116.84
2022-07-30T18:20:17.277Z,100120.81
2022-07-30T18:22:46.074Z,100123.28
2022-07-30T18:25:20.542Z,100113.84
2022-07-30T18:27:52.597Z,100117.78
2022-07-30T18:30:21.337Z,100124.84
2022-07-30T18:33:10.222Z,100118.97
2022-07-30T18:35:39.174Z,100122.41
2022-07-30T18:38:07.733Z,100125.44
2022-07-30T18:40:36.361Z,100131.31
2022-07-30T18:43:05.808Z,100132.59
2022-07-30T18:45:37.157Z,100131.09
2022-07-30T18:48:07.375Z,100130.13
2022-07-30T18:50:37.317Z,100129.66
2022-07-30T18:53:15.248Z,100131.97
2022-07-30T18:55:46.352Z,100135.28
2022-07-30T18:58:14.998Z,100133.59
2022-07-30T19:00:44.244Z,100131.13
2022-07-30T19:03:18.735Z,100122.47
2022-07-30T19:05:53.101Z,100123.72
2022-07-30T19:08:21.990Z,100132.78
2022-07-30T19:10:51.628Z,100123.19
2022-07-30T19:13:20.239Z,100119.00
2022-07-30T19:15:49.096Z,100115.44
2022-07-30T19:18:17.715Z,100099.72
2022-07-30T19:20:46.465Z,100096.72
2022-07-30T19:23:17.133Z,100106.75
2022-07-30T19:25:45.853Z,100098.84
2022-07-30T19:28:17.078Z,100100.44
2022-07-30T19:30:45.945Z,100100.13
2022-07-30T19:33:15.887Z,100089.09
2022-07-30T19:35:45.828Z,100098.41
2022-07-30T19:38:21.625Z,100085.34
2022-07-30T19:40:51.010Z,100086.88
2022-07-30T19:43:24.124Z,100084.31
2022-07-30T19:45:53.791Z,100074.97
2022-07-30T19:48:29.232Z,100064.50
2022-07-30T19:51:00.664Z,100071.25
2022-07-30T19:53:34.173Z,100061.91
2022-07-30T19:56:08.221Z,100071.41
2022-07-30T19:58:40.523Z,100069.13
2022-07-30T20:01:09.898Z,100059.19
2022-07-30T20:03:38.959Z,100057.16
2022-07-30T20:06:08.688Z,100049.19
2022-07-30T20:08:45.297Z,100059.41
2022-07-30T20:11:16.430Z,100042.91
2022-07-30T20:13:50.035Z,100053.72
2022-07-30T20:16:19.773Z,100061.31
2022-07-30T20:18:49.757Z,100072.97
2022-07-30T20:21:20.977Z,100062.34
2022-07-30T20:24:11.338Z,100083.09
2022-07-30T20:26:40.133Z,100073.84
2022-07-30T20:29:19.458Z,100079.03
2022-07-30T20:31:50.228Z,100077.25
2022-07-30T20:34:20.812Z,100071.28
2022-07-30T20:36:53.013Z,100057.88
2022-07-30T20:39:23.996Z,100052.16
2022-07-30T20:42:07.807Z,100069.16
2022-07-30T20:44:39.540Z,100074.41
2022-07-30T20:47:17.813Z,100088.38
2022-07-30T20:50:04.401Z,100091.88
2022-07-30T20:52:40.272Z,100092.09
2022-07-30T20:55:14.447Z,100088.25
2022-07-30T20:57:58.761Z,100087.72
2022-07-30T21:00:31.655Z,100094.53
2022-07-30T21:03:03.153Z,100094.28
2022-07-30T21:05:32.336Z,100094.81
2022-07-30T21:08:01.126Z,100094.16
2022-07-30T21:10:31.086Z,100084.22
2022-07-30T21:13:03.746Z,100072.66
2022-07-30T21:15:37.133Z,100075.28
2022-07-30T21:18:14.616Z,100073.78
2022-07-30T21:20:47.381Z,100062.69
2022-07-30T21:23:20.731Z,100060.94
2022-07-30T21:26:01.509Z,100066.16
2022-07-30T21:28:35.141Z,100059.88
2022-07-30T21:31:07.167Z,100051.47
2022-07-30T21:33:37.018Z,100051.09
2022-07-30T21:36:10.864Z,100058.03
2022-07-30T21:38:41.652Z,100048.09
2022-07-30T21:41:14.366Z,100050.72
2022-07-30T21:44:01.448Z,100036.19
2022-07-30T21:46:31.590Z,100034.66
2022-07-30T21:49:00.226Z,100029.09
2022-07-30T21:51:28.891Z,100026.44
2022-07-30T21:53:59.100Z,100019.81
2022-07-30T21:56:29.066Z,100020.06
2022-07-30T21:58:57.710Z,100019.59
2022-07-30T22:01:26.576Z,100006.03
2022-07-30T22:04:03.715Z,100003.28
2022-07-30T22:06:37.976Z,100001.22
2022-07-30T22:09:19.133Z,100001.00
2022-07-30T22:12:01.227Z,99995.63
2022-07-30T22:14:31.466Z,99998.56
2022-07-30T22:17:00.513Z,99989.72
2022-07-30T22:19:32.997Z,99986.09
2022-07-30T22:22:02.001Z,99993.03
2022-07-30T22:24:33.825Z,99986.78
2022-07-30T22:27:11.744Z,99980.84
2022-07-30T22:29:43.580Z,99979.47
2022-07-30T22:32:13.539Z,99954.81
2022-07-30T22:34:44.843Z,99959.16
2022-07-30T22:37:15.552Z,99964.97
2022-07-30T22:39:51.048Z,99959.91
2022-07-30T22:42:24.055Z,99963.38
2022-07-30T22:44:54.826Z,99956.81
2022-07-30T22:47:51.158Z,99962.66
2022-07-30T22:50:15.226Z,99954.41
2022-07-30T22:52:53.227Z,99951.56
2022-07-30T22:55:40.136Z,99956.94
2022-07-30T22:58:11.290Z,99947.56
2022-07-30T23:00:40.092Z,99949.34
2022-07-30T23:03:08.763Z,99953.13
2022-07-30T23:05:37.656Z,99954.91
2022-07-30T23:08:08.745Z,99947.34
2022-07-30T23:10:37.685Z,99949.41
2022-07-30T23:15:42.755Z,99942.25
2022-07-30T23:18:12.129Z,99938.56
2022-07-30T23:20:40.798Z,99931.41
2022-07-30T23:23:10.808Z,99933.78
2022-07-30T23:25:40.649Z,99923.53
2022-07-30T23:28:09.237Z,99930.53
2022-07-30T23:30:37.800Z,99920.88
2022-07-30T23:33:07.957Z,99923.50
2022-07-30T23:35:36.669Z,99916.84
2022-07-30T23:38:05.315Z,99918.28
2022-07-30T23:40:34.195Z,99905.16
2022-07-30T23:43:02.906Z,99918.13
2022-07-30T23:45:31.572Z,99905.16
2022-07-30T23:48:03.118Z,99913.25
2022-07-30T23:50:35.667Z,99910.56
2022-07-30T23:53:05.673Z,99905.66
2022-07-30T23:55:34.304Z,99911.03
2022-07-30T23:58:03.331Z,99913.25
